Time;durP1;ratioP1;P1;durP2;ratioP2;P2;SDS_P1;SDS_P2;PMS_P1;PMS_P2;Temp;Humidity;BMP_temperature;BMP_pressure;BME280_temperature;BME280_humidity;BME280_pressure;Samples;Min_cycle;Max_cycle;Signal;HPM_P1;HPM_P2
2022/02/03 00:00:19;;;;;;;35.93;21.13;;;8.70;99.90;;;;;;5050565;28;20879;-80
2022/02/03 00:02:56;;;;;;;54.40;28.23;;;8.80;99.90;;;;;;5065213;28;20486;-80
2022/02/03 00:05:32;;;;;;;39.53;22.70;;;8.70;99.90;;;;;;5055801;28;20478;-80
2022/02/03 00:08:03;;;;;;;43.20;24.13;;;8.70;99.90;;;;;;5046230;28;20940;-80
2022/02/03 00:10:41;;;;;;;42.10;24.40;;;8.70;99.90;;;;;;5051201;28;20488;-79
2022/02/03 00:16:27;;;;;;;40.40;23.83;;;8.80;99.90;;;;;;5050611;28;20565;-78
2022/02/03 00:22:14;;;;;;;52.30;25.97;;;8.90;99.90;;;;;;5044428;28;20448;-79
2022/02/03 00:24:56;;;;;;;44.07;23.60;;;8.80;99.90;;;;;;5035956;28;20464;-79
2022/02/03 00:30:18;;;;;;;53.83;27.57;;;8.90;99.90;;;;;;5041150;28;20464;-80
2022/02/03 00:33:05;;;;;;;41.23;23.73;;;8.90;99.90;;;;;;5044690;28;20489;-79
2022/02/03 00:35:49;;;;;;;49.03;25.00;;;8.90;99.90;;;;;;5056037;28;20937;-80
2022/02/03 00:49:17;;;;;;;45.43;23.60;;;9.00;99.90;;;;;;5038754;28;20535;-79
2022/02/03 00:51:47;;;;;;;61.10;30.30;;;8.90;99.90;;;;;;5041059;28;20477;-79
2022/02/03 00:54:15;;;;;;;49.03;25.60;;;8.90;99.90;;;;;;5036681;28;20492;-79
2022/02/03 00:56:47;;;;;;;44.93;26.47;;;8.90;99.90;;;;;;5050377;28;20461;-79
2022/02/03 00:59:20;;;;;;;48.03;25.70;;;8.90;99.90;;;;;;5041435;28;20545;-80
2022/02/03 01:01:50;;;;;;;56.73;27.07;;;9.00;99.90;;;;;;5040645;28;20531;-80
2022/02/03 01:04:19;;;;;;;44.20;24.03;;;9.00;99.90;;;;;;5055230;28;20479;-80
2022/02/03 01:06:50;;;;;;;46.03;25.37;;;9.00;99.90;;;;;;5043996;28;20455;-80
2022/02/03 01:09:20;;;;;;;45.93;25.53;;;9.00;99.90;;;;;;5036189;28;20992;-79
2022/02/03 01:11:50;;;;;;;42.00;23.00;;;9.00;99.90;;;;;;5034175;28;21080;-80
2022/02/03 01:14:22;;;;;;;60.63;30.93;;;9.00;99.90;;;;;;5047902;28;20804;-81
2022/02/03 01:17:05;;;;;;;46.10;25.17;;;9.00;99.90;;;;;;5051617;28;20475;-80
2022/02/03 01:33:50;;;;;;;50.40;25.83;;;9.00;99.90;;;;;;5034816;28;20480;-79
2022/02/03 01:44:55;;;;;;;46.27;24.37;;;9.10;99.90;;;;;;4942171;28;20912;-80
2022/02/03 01:47:35;;;;;;;40.63;23.50;;;9.10;99.90;;;;;;5015105;28;20454;-79
2022/02/03 01:52:53;;;;;;;38.30;22.07;;;9.20;99.90;;;;;;5051944;28;20901;-79
2022/02/03 01:55:22;;;;;;;40.47;23.50;;;9.10;99.90;;;;;;5046948;28;20967;-80
2022/02/03 01:57:57;;;;;;;35.63;23.53;;;9.10;99.90;;;;;;5052792;28;20538;-79
2022/02/03 02:00:26;;;;;;;39.43;25.00;;;9.20;99.90;;;;;;5051967;28;20947;-79
2022/02/03 02:03:08;;;;;;;44.90;26.33;;;9.20;99.90;;;;;;5045734;28;20988;-80
2022/02/03 02:05:46;;;;;;;40.50;24.40;;;9.10;99.90;;;;;;5035248;28;20949;-79
2022/02/03 02:08:25;;;;;;;44.70;25.37;;;9.10;99.90;;;;;;5050717;28;20452;-79
2022/02/03 02:11:12;;;;;;;36.47;24.63;;;9.10;99.90;;;;;;5050256;28;20484;-78
2022/02/03 02:14:11;;;;;;;38.37;23.90;;;9.10;99.90;;;;;;5036698;28;20473;-80
2022/02/03 02:17:20;;;;;;;40.90;26.67;;;9.10;99.90;;;;;;5039059;28;20828;-79
2022/02/03 02:19:59;;;;;;;42.17;26.00;;;9.10;99.90;;;;;;5041256;28;20473;-79
2022/02/03 02:39:11;;;;;;;43.00;24.93;;;9.00;99.90;;;;;;5053938;28;20994;-79
2022/02/03 02:44:42;;;;;;;39.93;23.00;;;9.00;99.90;;;;;;5033641;28;20452;-80
2022/02/03 02:47:16;;;;;;;46.30;27.17;;;9.10;99.90;;;;;;5043835;28;20459;-79
2022/02/03 02:49:51;;;;;;;39.73;24.73;;;9.10;99.90;;;;;;5047292;28;20553;-80
2022/02/03 02:52:25;;;;;;;39.83;24.33;;;9.10;99.90;;;;;;5043855;28;20572;-80
2022/02/03 02:55:08;;;;;;;40.90;23.93;;;9.10;99.90;;;;;;5039301;28;20480;-80
2022/02/03 03:31:34;;;;;;;35.93;20.50;;;8.90;99.90;;;;;;5035515;28;20507;-80
2022/02/03 03:34:12;;;;;;;36.00;19.97;;;8.90;99.90;;;;;;5052185;28;20912;-81
2022/02/03 03:36:42;;;;;;;37.30;21.80;;;9.00;99.90;;;;;;5048223;28;20460;-79
2022/02/03 03:39:13;;;;;;;36.30;21.20;;;9.00;99.90;;;;;;5051806;28;20464;-79
2022/02/03 03:41:44;;;;;;;41.30;23.33;;;9.00;99.90;;;;;;5038152;28;20452;-80
2022/02/03 03:44:15;;;;;;;34.93;19.87;;;9.00;99.90;;;;;;5053844;28;20472;-80
2022/02/03 03:46:48;;;;;;;38.57;21.87;;;9.00;99.90;;;;;;5046581;28;20480;-80
2022/02/03 03:49:30;;;;;;;33.80;21.20;;;9.00;99.90;;;;;;5038190;28;20448;-81
2022/02/03 03:52:02;;;;;;;36.40;22.80;;;9.00;99.90;;;;;;5037550;28;20504;-80
2022/02/03 03:54:35;;;;;;;38.73;22.10;;;9.00;99.90;;;;;;5037459;28;21002;-80
2022/02/03 03:57:14;;;;;;;40.00;23.27;;;9.00;99.90;;;;;;5050856;28;20486;-80
2022/02/03 04:00:14;;;;;;;39.03;21.83;;;9.10;99.90;;;;;;5057189;28;20538;-80
2022/02/03 04:32:17;;;;;;;39.40;25.90;;;8.90;99.90;;;;;;5042414;28;20484;-80
2022/02/03 04:38:03;;;;;;;37.40;23.33;;;8.90;99.90;;;;;;5027489;28;20516;-81
2022/02/03 04:59:19;;;;;;;31.63;20.00;;;8.80;99.90;;;;;;5051903;28;20463;-81
2022/02/03 05:02:16;;;;;;;33.97;18.90;;;8.90;99.90;;;;;;5045781;28;20489;-80
2022/02/03 05:05:07;;;;;;;25.70;17.03;;;8.80;99.90;;;;;;5035848;28;20465;-79
2022/02/03 05:08:06;;;;;;;26.83;18.30;;;8.70;99.90;;;;;;5054140;28;20495;-80
2022/02/03 05:11:09;;;;;;;30.80;16.60;;;8.70;99.90;;;;;;5052902;28;20448;-80
2022/02/03 05:14:15;;;;;;;21.67;16.20;;;8.70;99.90;;;;;;5039000;28;20480;-81
2022/02/03 05:20:06;;;;;;;27.27;16.03;;;8.80;99.90;;;;;;5031146;28;20429;-81
2022/02/03 05:32:44;;;;;;;18.63;13.13;;;8.80;99.90;;;;;;5042510;28;20503;-82
2022/02/03 05:35:29;;;;;;;14.30;9.53;;;8.80;99.90;;;;;;5053146;28;20896;-80
2022/02/03 05:44:09;;;;;;;15.90;10.63;;;8.70;99.90;;;;;;5059443;28;20472;-83
2022/02/03 05:47:14;;;;;;;16.07;12.00;;;8.70;99.90;;;;;;5048755;28;20483;-85
2022/02/03 05:55:39;;;;;;;15.60;11.40;;;8.60;99.90;;;;;;5056702;28;20424;-84
2022/02/03 06:01:18;;;;;;;12.40;9.33;;;8.70;99.90;;;;;;5053899;28;20475;-85
2022/02/03 06:04:04;;;;;;;13.20;9.03;;;8.60;99.90;;;;;;5037929;28;20515;-83
2022/02/03 06:06:52;;;;;;;12.20;9.80;;;8.50;99.90;;;;;;5040916;28;20476;-84
2022/02/03 06:09:34;;;;;;;11.73;8.80;;;8.50;99.90;;;;;;5042906;28;20444;-89
2022/02/03 06:12:37;;;;;;;13.73;10.23;;;8.60;99.90;;;;;;5046580;28;20484;-86
2022/02/03 06:15:09;;;;;;;12.67;8.70;;;8.50;99.90;;;;;;5039409;28;20483;-86
2022/02/03 06:20:39;;;;;;;16.60;8.07;;;8.50;99.90;;;;;;5057555;28;20464;-86
2022/02/03 06:20:52;;;;;;;13.03;7.37;;;8.50;99.90;;;;;;5058504;28;20452;-86
2022/02/03 06:23:25;;;;;;;11.20;8.00;;;8.50;99.90;;;;;;5059604;28;20463;-86
2022/02/03 06:28:44;;;;;;;12.93;7.63;;;8.60;99.90;;;;;;5078242;28;20535;-85
2022/02/03 06:31:11;;;;;;;10.57;7.97;;;8.60;99.90;;;;;;5070772;28;20444;-85
2022/02/03 06:33:38;;;;;;;8.90;7.20;;;8.60;99.90;;;;;;5062239;28;20455;-83
2022/02/03 06:36:05;;;;;;;7.93;6.97;;;8.50;99.90;;;;;;5076547;28;20468;-84
2022/02/03 06:38:32;;;;;;;9.90;7.97;;;8.50;99.90;;;;;;5077316;28;20444;-84
2022/02/03 06:40:59;;;;;;;10.27;7.40;;;8.50;99.90;;;;;;5073223;28;20439;-85
2022/02/03 06:43:25;;;;;;;11.00;8.90;;;8.50;99.90;;;;;;5065265;28;20536;-85
2022/02/03 06:46:00;;;;;;;13.37;8.37;;;8.50;99.90;;;;;;5061332;28;20459;-85
2022/02/03 06:48:29;;;;;;;14.50;9.10;;;8.50;99.90;;;;;;5060358;28;20451;-85
2022/02/03 06:51:04;;;;;;;14.70;7.97;;;8.50;99.90;;;;;;5058629;28;20452;-85
2022/02/03 06:53:36;;;;;;;11.87;8.50;;;8.50;99.90;;;;;;5058816;28;20486;-83
2022/02/03 06:56:07;;;;;;;11.03;7.97;;;8.50;99.90;;;;;;5050939;28;20481;-83
2022/02/03 06:58:39;;;;;;;10.10;7.17;;;8.50;99.90;;;;;;5037720;28;20456;-84
2022/02/03 07:01:13;;;;;;;46.70;19.30;;;8.50;99.90;;;;;;5049757;28;20451;-84
2022/02/03 07:03:43;;;;;;;12.87;7.43;;;9.30;99.90;;;;;;5053108;28;20479;-85
2022/02/03 07:06:12;;;;;;;8.87;6.73;;;8.60;99.90;;;;;;5043269;28;20516;-83
2022/02/03 07:08:45;;;;;;;11.20;8.00;;;8.70;99.90;;;;;;5045850;28;20887;-83
2022/02/03 07:11:18;;;;;;;12.93;7.17;;;;;;;;;;5045441;28;20538;-84
2022/02/03 07:13:45;;;;;;;10.60;7.60;;;8.50;99.90;;;;;;5044530;28;20558;-84
2022/02/03 07:16:16;;;;;;;13.23;9.20;;;8.40;99.90;;;;;;5049719;28;20452;-84
2022/02/03 07:18:43;;;;;;;12.13;9.20;;;8.40;99.90;;;;;;5045340;28;20463;-84
2022/02/03 07:21:12;;;;;;;11.13;9.20;;;8.30;99.90;;;;;;5044285;28;20457;-84
2022/02/03 07:23:40;;;;;;;12.90;8.23;;;8.30;99.90;;;;;;5052507;28;20478;-85
2022/02/03 07:26:07;;;;;;;10.27;7.80;;;8.20;99.90;;;;;;5044796;28;20904;-84
2022/02/03 07:28:34;;;;;;;12.70;8.03;;;8.20;99.90;;;;;;5046342;28;20463;-84
2022/02/03 07:31:01;;;;;;;11.60;8.47;;;8.20;99.90;;;;;;5050746;28;20519;-83
2022/02/03 07:33:32;;;;;;;10.00;7.90;;;8.30;99.90;;;;;;5059014;28;20574;-84
2022/02/03 07:35:58;;;;;;;10.70;8.60;;;8.20;99.90;;;;;;5039871;28;20445;-84
2022/02/03 07:38:25;;;;;;;14.17;8.90;;;8.20;99.90;;;;;;5052189;28;20454;-84
2022/02/03 07:40:52;;;;;;;12.57;8.97;;;8.20;99.90;;;;;;5040391;28;20827;-84
2022/02/03 07:43:21;;;;;;;13.17;9.07;;;8.30;99.90;;;;;;5052924;28;20563;-84
2022/02/03 07:45:48;;;;;;;11.97;9.17;;;8.30;99.90;;;;;;5051617;28;20876;-84
2022/02/03 07:48:14;;;;;;;12.07;9.60;;;8.40;99.90;;;;;;5057812;28;20471;-83
2022/02/03 07:50:43;;;;;;;10.50;8.43;;;8.40;99.90;;;;;;5046797;28;20793;-84
2022/02/03 07:53:09;;;;;;;15.70;9.43;;;8.30;99.90;;;;;;5047723;28;20484;-84
2022/02/03 07:55:36;;;;;;;10.73;7.90;;;8.30;99.90;;;;;;5053921;28;20440;-84
2022/02/03 07:58:03;;;;;;;14.50;10.03;;;8.30;99.90;;;;;;5043566;28;20472;-83
2022/02/03 08:00:30;;;;;;;11.70;8.97;;;8.30;99.90;;;;;;5045130;28;20440;-83
2022/02/03 08:02:57;;;;;;;13.50;8.77;;;8.40;99.90;;;;;;5045320;28;20488;-83
2022/02/03 08:05:26;;;;;;;9.30;7.43;;;8.50;99.90;;;;;;5043038;28;20444;-83
2022/02/03 08:08:03;;;;;;;11.40;8.73;;;8.40;99.90;;;;;;5047675;28;21002;-83
2022/02/03 08:10:37;;;;;;;11.87;8.20;;;8.50;99.90;;;;;;5054412;28;20527;-84
2022/02/03 08:13:06;;;;;;;13.80;9.13;;;8.50;99.90;;;;;;5052114;28;20894;-84
2022/02/03 08:15:35;;;;;;;13.80;9.50;;;8.50;99.90;;;;;;5035547;28;21035;-84
2022/02/03 08:18:06;;;;;;;16.03;10.20;;;8.60;99.90;;;;;;5043947;28;20464;-83
2022/02/03 08:20:33;;;;;;;13.73;10.20;;;8.60;99.90;;;;;;5050244;28;20462;-83
2022/02/03 08:23:24;;;;;;;15.90;11.07;;;8.60;99.90;;;;;;5052079;28;21061;-82
2022/02/03 08:26:01;;;;;;;12.50;9.93;;;8.60;99.90;;;;;;5055230;28;20849;-83
2022/02/03 08:28:54;;;;;;;15.47;10.07;;;8.50;99.90;;;;;;5042496;28;20453;-83
2022/02/03 08:31:25;;;;;;;17.00;12.17;;;8.50;99.90;;;;;;5059013;28;20451;-83
2022/02/03 08:33:54;;;;;;;19.17;12.90;;;8.40;99.90;;;;;;5050263;28;20484;-84
2022/02/03 08:36:22;;;;;;;14.10;11.33;;;8.30;99.90;;;;;;5049139;28;20465;-82
2022/02/03 08:38:55;;;;;;;14.83;11.00;;;8.30;99.90;;;;;;5039537;28;20536;-84
2022/02/03 08:41:24;;;;;;;18.60;11.10;;;8.40;99.90;;;;;;5040914;28;20953;-83
2022/02/03 08:43:52;;;;;;;14.83;11.80;;;8.50;99.90;;;;;;5039746;28;20520;-84
2022/02/03 08:46:19;;;;;;;17.17;11.93;;;8.50;99.90;;;;;;5050991;28;20471;-83
2022/02/03 08:48:46;;;;;;;15.30;11.70;;;8.40;99.90;;;;;;5059633;28;20451;-84
2022/02/03 08:51:13;;;;;;;20.07;13.40;;;8.30;99.90;;;;;;5059312;28;20940;-84
2022/02/03 08:53:44;;;;;;;14.10;10.30;;;8.30;99.90;;;;;;5055985;28;20501;-84
2022/02/03 08:56:27;;;;;;;18.13;11.83;;;8.40;99.90;;;;;;5053811;28;20452;-83
2022/02/03 08:59:18;;;;;;;14.50;10.30;;;8.30;99.90;;;;;;5076625;28;20549;-85
2022/02/03 09:37:37;;;;;;;14.13;10.20;;;8.40;99.90;;;;;;5049248;28;20436;-85
2022/02/03 09:40:34;;;;;;;17.10;11.13;;;8.40;99.90;;;;;;5048363;28;20453;-85
2022/02/03 09:54:22;;;;;;;18.77;11.90;;;8.30;99.90;;;;;;5036289;28;20500;-85
2022/02/03 09:57:10;;;;;;;14.10;11.00;;;8.30;99.90;;;;;;5051771;28;20543;-84
2022/02/03 09:59:46;;;;;;;13.23;10.33;;;8.30;99.90;;;;;;5036442;28;20453;-85
2022/02/03 10:02:20;;;;;;;15.83;11.43;;;8.30;99.90;;;;;;5048817;28;20436;-85
2022/02/03 10:04:49;;;;;;;14.83;11.37;;;8.20;99.90;;;;;;5054550;28;20499;-84
2022/02/03 10:07:20;;;;;;;16.00;11.83;;;8.20;99.90;;;;;;5055593;28;20449;-84
2022/02/03 10:09:49;;;;;;;15.73;10.70;;;8.20;99.90;;;;;;5052473;28;20536;-85
2022/02/03 10:12:16;;;;;;;14.90;10.50;;;8.30;99.90;;;;;;5043694;28;20523;-85
2022/02/03 10:14:44;;;;;;;17.60;11.23;;;8.30;99.90;;;;;;5054475;28;20465;-84
2022/02/03 10:17:14;;;;;;;14.57;10.63;;;8.20;99.90;;;;;;5045104;28;20447;-85
2022/02/03 10:19:45;;;;;;;14.50;10.87;;;8.30;99.90;;;;;;5055375;28;20452;-84
2022/02/03 10:22:15;;;;;;;13.57;10.57;;;8.30;99.90;;;;;;5057246;28;20483;-84
2022/02/03 10:24:46;;;;;;;12.57;8.63;;;8.40;99.90;;;;;;5043036;28;20474;-84
2022/02/03 10:27:30;;;;;;;16.50;10.20;;;8.40;99.90;;;;;;5046225;28;20443;-84
2022/02/03 10:30:22;;;;;;;14.20;10.73;;;8.40;99.90;;;;;;5057255;28;20957;-83
2022/02/03 10:32:51;;;;;;;14.77;9.77;;;8.40;99.90;;;;;;5037333;28;20490;-84
2022/02/03 10:35:23;;;;;;;12.93;9.90;;;8.40;99.90;;;;;;5037941;28;20457;-83
2022/02/03 10:47:05;;;;;;;15.03;9.80;;;8.60;99.90;;;;;;5049999;28;20440;-84
2022/02/03 10:55:28;;;;;;;11.70;8.87;;;8.70;99.90;;;;;;5042375;28;20447;-84
2022/02/03 10:58:18;;;;;;;11.10;7.27;;;8.70;99.90;;;;;;5057258;28;20458;-85
2022/02/03 11:03:42;;;;;;;10.37;8.40;;;8.70;99.90;;;;;;5039833;28;20461;-84
2022/02/03 11:06:24;;;;;;;12.00;8.17;;;8.70;99.90;;;;;;5047400;28;20461;-84
2022/02/03 11:08:59;;;;;;;10.53;8.20;;;8.70;99.90;;;;;;5052651;28;20467;-84
2022/02/03 11:11:35;;;;;;;11.87;8.27;;;8.80;99.90;;;;;;5051052;28;20511;-85
2022/02/03 11:14:02;;;;;;;13.00;8.10;;;8.80;99.90;;;;;;5054118;28;20500;-84
2022/02/03 11:16:30;;;;;;;14.63;9.40;;;8.90;99.90;;;;;;5052377;28;20510;-84
2022/02/03 11:19:02;;;;;;;12.47;8.83;;;8.80;99.90;;;;;;5044359;28;20540;-84
2022/02/03 11:21:31;;;;;;;8.83;7.33;;;8.80;99.90;;;;;;5053998;28;20797;-85
2022/02/03 11:24:04;;;;;;;10.50;7.97;;;8.80;99.90;;;;;;5059309;28;20638;-84
2022/02/03 11:26:34;;;;;;;10.70;8.27;;;8.80;99.90;;;;;;5047429;28;20515;-85
2022/02/03 11:29:34;;;;;;;9.37;7.07;;;8.80;99.90;;;;;;5056229;28;20437;-85
2022/02/03 11:32:22;;;;;;;8.67;7.77;;;8.70;99.90;;;;;;5043986;28;20487;-83
2022/02/03 11:35:34;;;;;;;9.70;7.37;;;8.70;99.90;;;;;;5044061;28;20506;-83
2022/02/03 11:38:11;;;;;;;10.30;7.37;;;8.70;99.90;;;;;;5051529;28;20443;-83
2022/02/03 11:41:12;;;;;;;12.00;7.73;;;8.60;99.90;;;;;;5042500;28;20448;-84
2022/02/03 11:52:56;;;;;;;8.90;6.50;;;8.60;99.90;;;;;;5113297;28;20936;-84
2022/02/03 11:59:02;;;;;;;8.30;6.40;;;8.60;99.90;;;;;;5125027;27;20611;-85
2022/02/03 12:16:19;;;;;;;8.23;5.47;;;8.00;99.90;;;;;;5047180;28;20519;-84
2022/02/03 12:19:07;;;;;;;9.03;5.50;;;7.90;99.90;;;;;;5092753;28;20447;-86
2022/02/03 12:21:41;;;;;;;9.30;6.23;;;7.90;99.90;;;;;;5088607;28;20539;-85
2022/02/03 12:24:23;;;;;;;6.77;5.93;;;7.80;99.90;;;;;;5098380;28;20528;-84
2022/02/03 12:27:00;;;;;;;7.43;5.43;;;7.90;99.90;;;;;;5104754;28;20458;-84
2022/02/03 12:29:42;;;;;;;8.80;6.17;;;7.90;99.90;;;;;;5102443;28;20859;-84
2022/02/03 12:32:20;;;;;;;12.63;5.27;;;7.80;99.90;;;;;;5100122;28;20463;-84
2022/02/03 12:40:30;;;;;;;8.43;4.90;;;7.70;99.90;;;;;;5100411;28;20439;-83
2022/02/03 12:43:25;;;;;;;8.27;5.43;;;7.60;99.90;;;;;;5110397;28;20493;-84
2022/02/03 12:45:55;;;;;;;10.90;6.07;;;7.60;99.90;;;;;;5109512;28;20457;-85
2022/02/03 12:48:34;;;;;;;5.80;4.70;;;7.50;99.90;;;;;;5107757;28;20478;-85
2022/02/03 12:54:23;;;;;;;14.70;7.80;;;7.60;99.90;;;;;;5056969;28;20490;-83
2022/02/03 12:56:50;;;;;;;9.30;6.30;;;7.60;99.90;;;;;;5064542;28;20496;-84
2022/02/03 12:59:27;;;;;;;6.23;5.30;;;7.60;99.90;;;;;;5101772;28;20454;-84
2022/02/03 13:01:54;;;;;;;8.20;6.00;;;7.60;99.90;;;;;;5119418;28;20449;-84
2022/02/03 13:04:23;;;;;;;7.70;5.27;;;7.70;99.90;;;;;;5116924;28;20478;-84
2022/02/03 13:07:00;;;;;;;9.30;6.37;;;7.80;99.90;;;;;;5109661;28;20518;-84
2022/02/03 13:09:36;;;;;;;17.17;6.90;;;7.80;99.90;;;;;;5101612;28;20466;-84
2022/02/03 13:12:15;;;;;;;7.77;5.67;;;7.80;99.90;;;;;;5098252;28;20469;-83
2022/02/03 13:14:48;;;;;;;7.13;5.80;;;7.90;99.90;;;;;;5106416;28;20503;-83
2022/02/03 13:17:21;;;;;;;5.50;4.70;;;7.90;99.90;;;;;;5104778;28;20523;-84
2022/02/03 13:19:55;;;;;;;7.47;6.27;;;7.90;99.90;;;;;;5094897;28;20438;-84
2022/02/03 13:22:32;;;;;;;6.70;5.60;;;7.90;99.90;;;;;;5100910;28;20449;-85
2022/02/03 13:25:13;;;;;;;7.40;4.87;;;8.00;99.90;;;;;;5102514;28;20449;-83
2022/02/03 13:27:53;;;;;;;7.53;5.30;;;8.00;99.90;;;;;;5092279;28;20488;-84
2022/02/03 13:30:42;;;;;;;7.50;5.33;;;8.00;99.90;;;;;;5106019;28;20438;-84
2022/02/03 13:33:11;;;;;;;6.93;5.17;;;7.90;99.90;;;;;;5097368;28;20467;-84
2022/02/03 13:35:51;;;;;;;9.00;6.37;;;7.90;99.90;;;;;;5110324;28;20447;-84
2022/02/03 13:38:36;;;;;;;10.93;5.70;;;7.90;99.90;;;;;;5094717;28;20466;-84
2022/02/03 13:41:10;;;;;;;9.67;6.70;;;7.90;99.90;;;;;;5090072;28;20499;-84
2022/02/03 13:43:40;;;;;;;7.40;5.00;;;7.90;99.90;;;;;;5093421;28;20467;-83
2022/02/03 13:46:07;;;;;;;8.37;6.33;;;7.90;99.90;;;;;;5093637;28;20431;-83
2022/02/03 13:48:37;;;;;;;8.43;5.57;;;7.90;99.90;;;;;;5082485;28;20537;-84
2022/02/03 13:51:09;;;;;;;7.33;6.07;;;7.80;99.90;;;;;;5079824;28;20512;-85
2022/02/03 13:53:40;;;;;;;8.10;5.30;;;7.90;99.90;;;;;;5079016;28;20978;-84
2022/02/03 14:16:12;;;;;;;5.73;4.50;;;8.20;99.90;;;;;;5080545;28;20506;-85
2022/02/03 14:21:27;;;;;;;7.77;5.33;;;8.70;99.90;;;;;;5045447;28;20419;-85
2022/02/03 14:26:56;;;;;;;6.07;5.30;;;8.80;99.90;;;;;;5080676;28;20843;-86
2022/02/03 14:29:25;;;;;;;7.70;5.23;;;8.70;99.90;;;;;;5080399;28;20804;-83
2022/02/03 14:31:58;;;;;;;6.40;4.83;;;8.80;99.90;;;;;;5080150;28;20555;-85
2022/02/03 14:34:29;;;;;;;8.80;5.80;;;8.70;99.90;;;;;;5080628;28;21096;-85
2022/02/03 14:37:03;;;;;;;9.67;5.00;;;8.70;99.90;;;;;;5079731;28;20854;-82
2022/02/03 14:39:47;;;;;;;9.20;4.93;;;8.60;99.90;;;;;;5060182;28;20488;-84
2022/02/03 14:42:16;;;;;;;9.37;5.20;;;8.50;99.90;;;;;;5058326;28;20417;-83
2022/02/03 14:44:43;;;;;;;8.53;4.67;;;8.50;99.90;;;;;;5063732;28;20474;-85
2022/02/03 14:47:10;;;;;;;4.90;4.40;;;8.40;99.90;;;;;;5073506;28;20526;-81
2022/02/03 14:49:42;;;;;;;10.60;6.57;;;8.40;99.90;;;;;;5077805;28;20545;-83
2022/02/03 14:52:13;;;;;;;5.83;5.17;;;8.40;99.90;;;;;;5079606;28;20555;-82
2022/02/03 15:00:14;;;;;;;6.13;4.63;;;8.40;99.90;;;;;;5075781;28;20438;-80
2022/02/03 15:02:41;;;;;;;6.33;4.40;;;8.40;99.90;;;;;;5076974;28;20453;-84
2022/02/03 15:05:12;;;;;;;6.13;5.27;;;8.30;99.90;;;;;;5077407;28;20565;-84
2022/02/03 15:07:43;;;;;;;7.10;4.87;;;8.30;99.90;;;;;;5082871;28;20460;-83
2022/02/03 15:10:28;;;;;;;7.00;5.20;;;8.20;99.90;;;;;;5080556;28;20456;-84
2022/02/03 15:13:01;;;;;;;5.70;4.30;;;8.20;99.90;;;;;;5076951;28;20527;-83
2022/02/03 15:15:28;;;;;;;6.43;4.83;;;8.10;99.90;;;;;;5079133;28;20452;-84
2022/02/03 15:17:55;;;;;;;5.93;4.60;;;8.00;99.90;;;;;;5079992;28;20478;-84
2022/02/03 15:20:23;;;;;;;7.60;4.50;;;8.00;99.90;;;;;;5079936;28;20542;-84
2022/02/03 15:22:50;;;;;;;7.63;5.20;;;8.10;99.90;;;;;;5079469;28;20477;-85
2022/02/03 15:25:18;;;;;;;8.10;5.00;;;8.20;99.90;;;;;;5079880;28;20451;-84
2022/02/03 15:27:45;;;;;;;7.20;5.60;;;8.10;99.90;;;;;;5085785;28;20463;-83
2022/02/03 15:30:14;;;;;;;8.47;5.40;;;8.00;99.90;;;;;;5084881;28;20454;-83
2022/02/03 15:32:42;;;;;;;7.40;5.13;;;7.90;99.90;;;;;;5080094;28;20597;-85
2022/02/03 15:35:16;;;;;;;8.03;5.27;;;7.90;99.90;;;;;;5082257;28;20980;-83
2022/02/03 15:37:46;;;;;;;7.97;6.77;;;7.70;99.90;;;;;;5082074;28;20545;-84
2022/02/03 15:40:18;;;;;;;7.00;5.47;;;7.80;99.90;;;;;;5084048;28;20439;-84
2022/02/03 15:42:58;;;;;;;6.03;5.17;;;7.80;99.90;;;;;;5069871;28;20545;-81
2022/02/03 15:45:26;;;;;;;6.30;4.70;;;7.80;99.90;;;;;;5081214;28;20451;-85
2022/02/03 15:47:57;;;;;;;8.60;5.60;;;7.90;99.90;;;;;;5078488;28;20446;-81
2022/02/03 15:59:34;;;;;;;6.93;4.73;;;7.70;99.90;;;;;;5075959;28;20564;-82
2022/02/03 16:01:54;;;;;;;11.30;4.90;;;7.80;99.90;;;;;;5075159;28;20502;-82
2022/02/03 16:13:11;;;;;;;10.87;5.60;;;7.80;99.90;;;;;;5075587;28;20476;-81
2022/02/03 16:18:11;;;;;;;8.20;5.27;;;7.80;99.90;;;;;;5092816;28;20474;-85
2022/02/03 16:20:43;;;;;;;7.33;5.33;;;7.70;99.90;;;;;;5093095;28;20477;-84
2022/02/03 16:23:34;;;;;;;10.27;5.40;;;7.70;99.90;;;;;;5092240;28;20479;-82
2022/02/03 16:50:58;;;;;;;10.10;6.53;;;7.40;99.90;;;;;;5095480;28;20551;-82
2022/02/03 16:53:25;;;;;;;9.30;5.67;;;7.40;99.90;;;;;;5091744;28;20505;-82
2022/02/03 16:55:52;;;;;;;7.50;6.03;;;7.50;99.90;;;;;;5096429;28;20466;-82
2022/02/03 16:58:19;;;;;;;11.83;7.03;;;7.50;99.90;;;;;;5095960;28;20473;-83
2022/02/03 17:00:47;;;;;;;8.13;6.63;;;7.50;99.90;;;;;;5096396;28;20457;-82
2022/02/03 17:03:15;;;;;;;8.63;6.77;;;7.60;99.90;;;;;;5094043;28;20473;-83
2022/02/03 17:05:42;;;;;;;8.87;6.23;;;7.50;99.90;;;;;;5094743;28;20543;-82
2022/02/03 17:08:09;;;;;;;10.17;7.27;;;7.50;99.90;;;;;;5096106;28;20443;-83
2022/02/03 17:10:36;;;;;;;9.20;6.87;;;7.50;99.90;;;;;;5098840;28;20423;-84
2022/02/03 17:13:04;;;;;;;14.43;7.23;;;7.50;99.90;;;;;;5098466;28;20563;-83
2022/02/03 17:15:31;;;;;;;13.17;8.80;;;7.50;99.90;;;;;;5098911;28;20435;-81
2022/02/03 17:17:58;;;;;;;8.23;5.90;;;7.40;99.90;;;;;;5109132;28;20455;-86
2022/02/03 17:20:29;;;;;;;8.87;6.27;;;7.50;99.90;;;;;;5097749;28;20515;-85
2022/02/03 17:22:57;;;;;;;8.77;7.40;;;7.50;99.90;;;;;;5095869;28;20463;-84
2022/02/03 17:25:31;;;;;;;9.83;6.83;;;7.50;99.90;;;;;;5093884;28;20462;-83
2022/02/03 17:28:03;;;;;;;12.23;8.35;;;8.60;99.90;;;;;;5092174;28;20435;-81
2022/02/03 17:30:34;;;;;;;12.60;8.03;;;7.40;99.90;;;;;;5094700;28;20207;-81
2022/02/03 17:53:02;;;;;;;9.80;7.03;;;7.40;99.90;;;;;;5079509;28;20487;-81
2022/02/03 18:04:35;;;;;;;15.37;9.03;;;7.30;99.90;;;;;;5077945;28;20461;-82
2022/02/03 18:07:21;;;;;;;12.97;8.80;;;7.10;99.90;;;;;;5075012;28;20450;-81
2022/02/03 18:09:57;;;;;;;13.20;8.90;;;7.10;99.90;;;;;;5079115;28;20442;-81
2022/02/03 18:18:51;;;;;;;14.23;9.77;;;7.10;99.90;;;;;;5077468;28;20493;-81
2022/02/03 18:29:49;;;;;;;11.20;9.40;;;7.30;99.90;;;;;;5077290;28;20844;-82
2022/02/03 18:51:33;;;;;;;16.43;11.50;;;7.20;99.90;;;;;;5090012;28;20525;-81
2022/02/03 18:54:12;;;;;;;16.70;12.30;;;7.20;99.90;;;;;;5088949;28;20473;-80
2022/02/03 18:56:45;;;;;;;20.03;12.43;;;7.10;99.90;;;;;;5090479;28;20597;-79
2022/02/03 18:59:27;;;;;;;13.70;10.40;;;7.10;99.90;;;;;;5091416;28;20544;-80
2022/02/03 19:02:18;;;;;;;14.67;11.00;;;7.10;99.90;;;;;;5091209;28;20442;-80
2022/02/03 19:16:05;;;;;;;14.10;11.90;;;7.00;99.90;;;;;;5086649;28;20876;-80
2022/02/03 19:24:21;;;;;;;21.40;14.23;;;6.90;99.90;;;;;;5067872;28;20954;-81
2022/02/03 19:57:33;;;;;;;21.73;14.73;;;7.00;99.90;;;;;;5077982;28;20455;-82
2022/02/03 20:05:32;;;;;;;18.87;13.87;;;7.10;99.90;;;;;;5034398;28;20514;-81
2022/02/03 20:08:04;;;;;;;24.70;16.73;;;7.00;99.90;;;;;;5072890;28;20446;-81
2022/02/03 20:10:35;;;;;;;17.47;14.63;;;7.00;99.90;;;;;;5074964;28;20442;-80
2022/02/03 20:13:02;;;;;;;24.40;15.00;;;7.00;99.90;;;;;;5072223;28;20503;-81
2022/02/03 20:15:32;;;;;;;17.10;14.53;;;7.00;99.90;;;;;;5060283;28;20842;-81
2022/02/03 20:18:00;;;;;;;19.93;14.57;;;7.00;99.90;;;;;;5061988;28;20490;-81
2022/02/03 20:20:29;;;;;;;22.90;15.20;;;7.00;99.90;;;;;;5077553;28;21043;-82
2022/02/03 20:22:55;;;;;;;19.30;14.50;;;7.10;99.90;;;;;;5076141;28;20474;-80
2022/02/03 20:25:22;;;;;;;19.23;14.77;;;7.10;99.90;;;;;;5075106;28;20468;-80
2022/02/03 20:27:49;;;;;;;21.20;15.50;;;7.20;99.90;;;;;;5073611;28;20532;-81
2022/02/03 20:30:16;;;;;;;21.47;14.73;;;7.10;99.90;;;;;;5077033;28;20465;-81
2022/02/03 20:32:43;;;;;;;23.77;15.00;;;7.10;99.90;;;;;;5079605;28;20829;-81
2022/02/03 20:35:11;;;;;;;22.30;16.67;;;7.10;99.90;;;;;;5078445;28;20465;-80
2022/02/03 20:37:39;;;;;;;23.20;15.07;;;7.00;99.90;;;;;;5076756;28;20498;-81
2022/02/03 20:40:07;;;;;;;21.73;16.03;;;7.00;99.90;;;;;;5079057;28;20565;-81
2022/02/03 20:42:34;;;;;;;20.97;15.47;;;7.00;99.90;;;;;;5075764;28;20490;-81
2022/02/03 20:45:01;;;;;;;23.00;16.23;;;7.00;99.90;;;;;;5077394;28;20541;-81
2022/02/03 20:47:30;;;;;;;21.03;15.30;;;7.00;99.90;;;;;;5075203;28;20462;-81
2022/02/03 20:49:57;;;;;;;27.93;18.60;;;7.00;99.90;;;;;;5075643;28;20450;-81
2022/02/03 20:52:24;;;;;;;22.30;16.97;;;7.00;99.90;;;;;;5077154;28;20964;-80
2022/02/03 20:54:53;;;;;;;26.20;18.63;;;7.00;99.90;;;;;;5076116;28;20476;-81
2022/02/03 20:57:20;;;;;;;21.50;17.10;;;7.00;99.90;;;;;;5070505;28;20957;-82
2022/02/03 20:59:59;;;;;;;24.13;16.63;;;7.00;99.90;;;;;;5076475;28;20512;-81
2022/02/03 21:02:36;;;;;;;25.50;17.93;;;7.00;99.90;;;;;;5075231;28;20725;-80
2022/02/03 21:05:08;;;;;;;25.20;17.77;;;7.10;99.90;;;;;;5069913;28;20493;-80
2022/02/03 21:07:36;;;;;;;23.07;17.70;;;7.10;99.90;;;;;;5075432;28;20516;-79
2022/02/03 21:10:09;;;;;;;25.30;17.27;;;7.10;99.90;;;;;;5076367;28;20541;-79
2022/02/03 21:12:35;;;;;;;24.03;17.50;;;7.10;99.90;;;;;;5075343;28;20895;-80
2022/02/03 21:15:04;;;;;;;24.47;16.50;;;7.20;99.90;;;;;;5076137;28;20460;-79